Time;durP1;ratioP1;P1;durP2;ratioP2;P2;SDS_P1;SDS_P2;PMS_P1;PMS_P2;Temp;Humidity;BMP_temperature;BMP_pressure;BME280_temperature;BME280_humidity;BME280_pressure;Samples;Min_cycle;Max_cycle;Signal;HPM_P1;HPM_P2
2022/07/14 00:02:07;;;;;;;4.03;1.60;;;;;;;20.06;58.37;97069.91;10427429;28;20053;-47
2022/07/14 00:07:26;;;;;;;2.30;1.60;;;;;;;20.07;58.43;97071.50;10414329;28;20058;-49
2022/07/14 00:12:45;;;;;;;2.67;1.33;;;;;;;20.07;58.37;97075.00;10426713;28;20054;-49
2022/07/14 00:18:05;;;;;;;2.47;1.50;;;;;;;20.06;58.37;97076.13;10413392;28;20049;-47
2022/07/14 00:23:25;;;;;;;2.38;1.50;;;;;;;20.05;58.37;97071.84;10440740;28;20042;-46
2022/07/14 00:28:44;;;;;;;3.15;1.48;;;;;;;20.06;58.31;97067.22;10412777;28;20390;-47
2022/07/14 00:34:03;;;;;;;2.47;1.30;;;;;;;20.06;58.32;97072.63;10412223;28;20493;-48
2022/07/14 00:39:22;;;;;;;2.92;1.33;;;;;;;20.06;58.25;97064.50;10406511;28;20493;-49
2022/07/14 00:44:42;;;;;;;2.85;1.23;;;;;;;20.07;58.26;97060.69;10413214;28;20049;-47
2022/07/14 00:50:02;;;;;;;1.92;1.30;;;;;;;20.06;58.27;97068.00;10413028;28;20061;-47
2022/07/14 00:55:21;;;;;;;2.20;1.13;;;;;;;20.07;58.23;97060.69;10401649;28;20136;-47
2022/07/14 01:00:41;;;;;;;2.92;1.38;;;;;;;20.06;58.26;97062.59;10413367;28;20061;-46
2022/07/14 01:06:01;;;;;;;2.80;1.30;;;;;;;20.06;58.20;97059.88;10427213;28;20467;-48
2022/07/14 01:11:20;;;;;;;2.83;1.20;;;;;;;20.07;58.14;97055.25;10420759;28;20065;-48
2022/07/14 01:16:39;;;;;;;2.47;1.20;;;;;;;20.06;58.14;97053.69;10418483;28;20107;-48
2022/07/14 01:22:01;;;;;;;2.22;1.30;;;;;;;20.05;58.09;97052.91;10418627;28;20053;-47
2022/07/14 01:27:22;;;;;;;2.42;1.10;;;;;;;20.06;58.06;97059.09;10399019;28;20064;-47
2022/07/14 01:32:41;;;;;;;2.63;1.40;;;;;;;20.05;58.00;97054.78;10402022;28;20061;-45
2022/07/14 01:38:01;;;;;;;2.45;1.23;;;;;;;20.06;57.99;97057.19;10432948;28;20413;-47
2022/07/14 01:43:21;;;;;;;1.90;1.20;;;;;;;20.06;58.01;97051.00;10428437;28;20052;-48
2022/07/14 01:48:41;;;;;;;1.55;1.00;;;;;;;20.06;57.98;97042.88;10404234;28;20061;-46
2022/07/14 01:54:04;;;;;;;3.00;1.15;;;;;;;20.05;57.90;97049.38;10403666;28;20053;-48
2022/07/14 01:59:25;;;;;;;2.42;1.10;;;;;;;20.05;57.96;97046.69;10403571;28;20386;-47
2022/07/14 02:04:44;;;;;;;2.00;1.10;;;;;;;20.05;57.90;97038.56;10416561;28;20104;-48
2022/07/14 02:15:45;;;;;;;1.77;1.08;;;;;;;20.05;57.86;97035.88;10403862;28;20064;-47
2022/07/14 02:21:06;;;;;;;2.97;1.15;;;;;;;20.05;57.95;97025.88;10403077;28;20065;-47
2022/07/14 02:26:26;;;;;;;1.50;1.10;;;;;;;20.05;57.86;97025.03;10397063;28;20058;-47
2022/07/14 02:31:47;;;;;;;1.50;0.98;;;;;;;20.05;57.83;97022.34;10412324;28;20053;-47
2022/07/14 02:37:08;;;;;;;1.70;1.35;;;;;;;20.04;57.85;97021.56;10420234;28;20062;-47
2022/07/14 02:42:27;;;;;;;1.98;1.05;;;;;;;20.04;57.81;97018.06;10408134;28;20072;-48
2022/07/14 02:47:46;;;;;;;2.30;1.13;;;;;;;20.04;57.84;97029.66;10401568;28;20057;-48
2022/07/14 02:53:06;;;;;;;1.10;1.00;;;;;;;20.04;57.72;97028.88;10426745;28;20057;-47
2022/07/14 02:58:28;;;;;;;1.25;1.00;;;;;;;20.04;57.79;97037.00;10415297;28;20493;-47
2022/07/14 03:03:48;;;;;;;1.33;0.95;;;;;;;20.05;57.71;97027.75;10408854;28;20050;-46
2022/07/14 03:09:08;;;;;;;1.10;0.90;;;;;;;20.04;57.71;97028.88;10407115;28;20512;-47
2022/07/14 03:14:27;;;;;;;1.25;1.00;;;;;;;20.04;57.72;97023.47;10410459;28;20042;-49
2022/07/14 03:19:47;;;;;;;1.23;0.90;;;;;;;20.05;57.68;97019.63;10442990;28;20385;-47
2022/07/14 03:25:09;;;;;;;1.85;1.08;;;;;;;20.04;57.78;97013.44;10399430;28;20050;-46
2022/07/14 03:30:29;;;;;;;1.42;1.10;;;;;;;20.04;57.72;97021.56;10423026;28;20497;-49
2022/07/14 03:35:50;;;;;;;1.67;1.15;;;;;;;20.05;57.62;97025.03;10419775;28;20511;-46
2022/07/14 03:41:09;;;;;;;1.48;1.00;;;;;;;20.03;57.73;97011.06;10408460;28;20381;-47
2022/07/14 03:46:31;;;;;;;1.33;1.00;;;;;;;20.04;57.70;97012.66;10419005;28;20116;-47
2022/07/14 03:52:03;;;;;;;1.23;1.00;;;;;;;20.04;57.46;97009.94;10399285;28;20054;-46
2022/07/14 03:57:23;;;;;;;1.15;1.00;;;;;;;20.03;57.72;97014.56;10412527;28;20413;-47
2022/07/14 04:02:43;;;;;;;1.15;0.82;;;;;;;20.04;57.56;97018.84;10398792;28;20065;-47
2022/07/14 04:08:05;;;;;;;1.10;0.90;;;;;;;20.04;57.57;97021.56;10407201;28;20065;-47
2022/07/14 04:13:34;;;;;;;1.63;1.10;;;;;;;20.05;57.63;97025.03;10401957;28;20520;-45
2022/07/14 04:18:53;;;;;;;1.50;1.05;;;;;;;20.04;57.63;97029.66;10411432;28;20096;-49
2022/07/14 04:24:13;;;;;;;2.10;1.00;;;;;;;20.04;57.72;97023.47;10411198;28;20076;-47
2022/07/14 04:29:35;;;;;;;1.05;0.95;;;;;;;20.05;57.76;97019.63;10410366;28;20053;-49
2022/07/14 04:34:55;;;;;;;1.10;1.00;;;;;;;20.06;57.69;97021.25;10426400;28;20053;-46
2022/07/14 04:40:14;;;;;;;1.30;1.15;;;;;;;20.01;56.07;97019.47;10431839;28;20112;-46
2022/07/14 04:45:34;;;;;;;1.30;1.20;;;;;;;19.87;58.01;97013.47;10407667;28;20509;-46
2022/07/14 04:56:33;;;;;;;2.45;1.30;;;;;;;19.79;59.12;97023.19;10427945;28;20385;-48
2022/07/14 05:02:08;;;;;;;1.40;1.30;;;;;;;19.86;58.40;97023.50;10409017;28;20057;-46
2022/07/14 05:07:29;;;;;;;1.30;1.20;;;;;;;19.93;57.90;97034.63;10407297;28;20041;-46
2022/07/14 05:12:50;;;;;;;2.03;1.45;;;;;;;19.97;57.80;97029.34;10418690;28;20389;-46
2022/07/14 05:18:10;;;;;;;6.20;2.30;;;;;;;20.00;57.52;97026.03;10415981;28;20057;-45
2022/07/14 05:23:31;;;;;;;8.73;2.75;;;;;;;20.00;57.51;97025.22;10431856;28;20045;-45
2022/07/14 05:28:52;;;;;;;8.90;3.10;;;;;;;20.01;57.50;97032.22;10404645;28;20053;-46
2022/07/14 05:34:11;;;;;;;9.05;3.42;;;;;;;20.02;57.36;97031.13;10394016;28;20057;-45
2022/07/14 05:39:31;;;;;;;9.45;3.45;;;;;;;20.01;57.48;97034.91;10411996;28;20072;-46
2022/07/14 05:44:50;;;;;;;9.13;3.17;;;;;;;20.02;57.51;97042.72;10456529;28;20408;-46
2022/07/14 05:50:10;;;;;;;7.20;3.10;;;;;;;20.02;57.42;97031.13;10444862;28;20085;-46
2022/07/14 05:55:31;;;;;;;10.13;3.03;;;;;;;20.03;57.35;97035.38;10427367;28;20049;-45
2022/07/14 06:00:50;;;;;;;7.43;2.70;;;;;;;20.02;57.42;97047.34;10431724;28;20045;-46
2022/07/14 06:06:10;;;;;;;8.55;2.80;;;;;;;20.02;57.41;97031.91;10403733;28;20061;-46
2022/07/14 06:11:31;;;;;;;7.43;2.80;;;;;;;20.03;57.46;97038.91;10405098;28;20472;-46
2022/07/14 06:16:52;;;;;;;5.40;2.53;;;;;;;20.03;57.40;97038.91;10374211;28;20064;-46
2022/07/14 06:22:11;;;;;;;4.10;2.40;;;;;;;20.04;57.45;97034.28;10384159;28;20509;-48
2022/07/14 06:27:31;;;;;;;5.65;2.35;;;;;;;20.04;57.34;97039.69;10397279;28;20229;-48
2022/07/14 06:32:51;;;;;;;6.15;2.40;;;;;;;20.04;57.39;97037.78;10405253;28;20067;-47
2022/07/14 06:38:11;;;;;;;6.72;2.28;;;;;;;20.05;57.35;97043.97;10400523;28;20061;-46
2022/07/14 06:43:32;;;;;;;3.72;2.13;;;;;;;20.05;57.35;97054.78;10409988;28;20060;-46
2022/07/14 06:48:53;;;;;;;5.57;2.45;;;;;;;20.05;57.33;97058.31;10389646;28;20068;-48
2022/07/14 06:54:15;;;;;;;3.60;2.40;;;;;;;20.05;57.44;97063.72;10401544;28;20057;-46
2022/07/14 06:59:35;;;;;;;4.68;2.20;;;;;;;20.05;57.39;97057.50;10416813;28;20120;-47
2022/07/14 07:10:32;;;;;;;3.73;2.00;;;;;;;20.05;57.44;97046.69;10429919;28;20508;-45
2022/07/14 07:15:52;;;;;;;4.25;2.17;;;;;;;20.06;57.32;97040.16;10430438;28;20060;-47
2022/07/14 07:21:18;;;;;;;4.30;2.20;;;;;;;20.07;57.45;97033.63;10413203;28;20058;-49
2022/07/14 07:26:40;;;;;;;4.68;2.28;;;;;;;20.07;57.40;97036.34;10409170;28;20065;-49
2022/07/14 07:31:59;;;;;;;4.97;2.78;;;;;;;20.07;57.42;97036.34;10414389;28;20054;-47
2022/07/14 07:37:19;;;;;;;3.63;2.45;;;;;;;20.07;57.51;97045.25;10423134;28;20053;-47
2022/07/14 07:42:38;;;;;;;5.32;2.80;;;;;;;20.07;57.44;97047.97;10421152;28;20057;-48
2022/07/14 07:47:57;;;;;;;5.32;2.30;;;;;;;20.08;57.49;97046.06;10423291;28;20061;-47
2022/07/14 07:53:17;;;;;;;3.90;2.28;;;;;;;20.08;57.52;97040.66;10427461;28;20053;-48
2022/07/14 07:58:36;;;;;;;3.22;2.10;;;;;;;20.07;57.44;97034.44;10436001;28;20532;-45
2022/07/14 08:03:55;;;;;;;4.05;2.22;;;;;;;20.08;57.46;97027.13;10434972;28;20077;-47
2022/07/14 08:09:15;;;;;;;2.72;2.08;;;;;;;20.08;57.51;97036.03;10416274;28;20053;-46
2022/07/14 08:14:49;;;;;;;2.80;2.00;;;;;;;20.08;57.68;97036.03;10406071;28;20057;-47
2022/07/14 08:20:12;;;;;;;3.20;1.90;;;;;;;20.08;57.50;97037.94;10426843;28;20107;-48
2022/07/14 08:25:33;;;;;;;3.88;2.00;;;;;;;20.09;57.49;97031.41;10400865;28;20505;-45
2022/07/14 08:30:52;;;;;;;2.75;2.00;;;;;;;20.08;57.43;97029.81;10418099;28;20115;-46
2022/07/14 08:36:11;;;;;;;2.58;1.70;;;;;;;20.09;57.44;97026.81;10447039;28;20053;-45
2022/07/14 08:41:36;;;;;;;3.70;1.98;;;;;;;20.09;57.49;97020.56;10428863;28;20046;-46
2022/07/14 08:46:56;;;;;;;3.10;1.75;;;;;;;20.10;57.51;97027.59;10403253;28;20468;-47
2022/07/14 08:52:17;;;;;;;2.50;1.90;;;;;;;20.09;57.32;97028.69;10433984;28;20053;-46
2022/07/14 08:57:37;;;;;;;2.85;1.80;;;;;;;20.08;57.42;97019.00;10445444;28;20087;-46
2022/07/14 09:02:57;;;;;;;2.40;1.80;;;;;;;20.10;57.60;97019.47;10452284;28;20424;-47
2022/07/14 09:08:17;;;;;;;2.78;1.80;;;;;;;20.11;57.49;97010.22;10446314;28;20103;-48
2022/07/14 09:13:37;;;;;;;3.63;1.95;;;;;;;20.11;57.58;97012.94;10450895;28;20057;-47
2022/07/14 09:19:10;;;;;;;2.72;1.80;;;;;;;20.11;57.60;97011.03;10436517;28;20593;-46
2022/07/14 09:24:30;;;;;;;2.92;2.03;;;;;;;20.11;57.64;97005.63;10400676;28;20049;-46
2022/07/14 09:29:55;;;;;;;2.63;1.80;;;;;;;20.12;57.60;96999.09;10446289;28;20452;-46
2022/07/14 09:35:20;;;;;;;2.72;1.90;;;;;;;20.12;57.60;96988.28;10390437;28;20417;-46
2022/07/14 09:40:40;;;;;;;3.45;2.00;;;;;;;20.14;57.70;96990.66;10418407;28;20532;-46
2022/07/14 09:45:59;;;;;;;2.60;1.77;;;;;;;20.13;57.67;96989.06;10419210;28;20049;-45
2022/07/14 09:51:18;;;;;;;4.13;1.75;;;;;;;20.15;57.67;96984.94;10409373;28;20058;-46
2022/07/14 09:56:39;;;;;;;2.67;1.60;;;;;;;20.14;57.70;96974.44;10418690;28;20062;-45
2022/07/14 10:01:59;;;;;;;2.83;1.58;;;;;;;20.15;57.65;96976.03;10417981;28;20497;-45
2022/07/14 10:07:18;;;;;;;2.75;1.70;;;;;;;20.17;57.71;96967.56;10412253;28;20497;-45
2022/07/14 10:12:41;;;;;;;2.40;1.80;;;;;;;20.16;57.68;96966.78;10436450;28;20065;-48
2022/07/14 10:18:02;;;;;;;3.58;1.60;;;;;;;20.18;57.80;96969.19;10448764;28;20061;-47
2022/07/14 10:23:22;;;;;;;2.75;1.65;;;;;;;20.18;57.79;96961.84;10414075;28;20084;-47
2022/07/14 10:28:42;;;;;;;3.78;1.50;;;;;;;20.20;57.86;96961.53;10416874;28;20061;-46
2022/07/14 10:34:33;;;;;;;2.50;1.90;;;;;;;20.21;58.00;96969.34;10417339;28;20057;-47
2022/07/14 10:40:10;;;;;;;4.03;2.60;;;;;;;20.23;58.29;96960.88;10418415;28;20053;-47
2022/07/14 10:45:30;;;;;;;12.00;3.58;;;;;;;20.23;58.36;96952.75;10405125;28;20053;-45
2022/07/14 10:51:16;;;;;;;7.60;3.28;;;;;;;20.24;58.98;96954.34;10430037;28;20054;-44
2022/07/14 10:56:36;;;;;;;7.40;2.95;;;;;;;20.25;59.38;96945.91;10416793;28;20496;-47
2022/07/14 11:02:13;;;;;;;7.63;2.95;;;;;;;20.27;59.42;96922.03;10398462;28;20061;-46
2022/07/14 11:07:53;;;;;;;7.97;2.60;;;;;;;20.29;59.44;96921.72;10406362;28;20061;-44
2022/07/14 11:13:16;;;;;;;6.28;2.78;;;;;;;20.30;59.39;96907.06;10402293;28;20049;-46
2022/07/14 11:18:37;;;;;;;6.50;2.88;;;;;;;20.30;59.51;96902.44;10419994;28;20053;-47
2022/07/14 11:24:02;;;;;;;3.08;2.03;;;;;;;20.33;59.17;96887.47;10408253;28;20658;-48
2022/07/14 11:29:31;;;;;;;5.57;2.20;;;;;;;20.35;58.80;96886.03;10410231;28;20053;-51
2022/07/14 11:40:59;;;;;;;5.30;1.92;;;;;;;20.41;58.69;96885.84;10419489;28;20053;-49
2022/07/14 11:46:20;;;;;;;6.30;2.20;;;;;;;20.40;58.66;96897.78;10428097;28;20156;-46
2022/07/14 11:51:40;;;;;;;3.00;2.00;;;;;;;20.39;58.56;96897.00;10410306;28;20057;-47
2022/07/14 11:57:01;;;;;;;3.92;2.03;;;;;;;20.39;58.54;96901.63;10442177;28;20064;-46
2022/07/14 12:02:21;;;;;;;5.22;2.35;;;;;;;20.38;58.42;96900.03;10449115;28;20050;-48
2022/07/14 12:07:49;;;;;;;5.05;2.33;;;;;;;20.33;57.32;96896.38;10414506;28;20058;-47
2022/07/14 12:13:09;;;;;;;5.10;2.38;;;;;;;20.28;57.12;96888.44;10413963;28;20084;-46
2022/07/14 12:18:31;;;;;;;4.93;2.80;;;;;;;20.28;57.93;96871.41;10413768;28;20061;-46
2022/07/14 12:23:53;;;;;;;5.80;2.80;;;;;;;20.26;56.71;96873.66;10405321;28;20060;-46
2022/07/14 12:29:12;;;;;;;4.90;2.42;;;;;;;20.25;57.96;96864.75;10415756;28;20053;-47
2022/07/14 12:34:32;;;;;;;5.68;2.50;;;;;;;20.27;58.03;96857.13;10413173;28;20060;-48
2022/07/14 12:39:52;;;;;;;6.45;2.88;;;;;;;20.24;57.78;96844.22;10426001;28;20051;-47
2022/07/14 12:45:11;;;;;;;6.80;2.70;;;;;;;20.25;58.07;96829.59;10411509;28;20057;-47
2022/07/14 12:50:30;;;;;;;7.22;3.00;;;;;;;20.25;57.19;96828.81;10430899;28;20057;-47
2022/07/14 12:55:58;;;;;;;5.57;2.90;;;;;;;20.25;58.00;96818.00;10439946;28;20053;-46
2022/07/14 13:01:17;;;;;;;6.47;2.72;;;;;;;20.23;56.84;96798.56;10418809;28;20141;-47
2022/07/14 13:06:44;;;;;;;5.68;2.88;;;;;;;20.24;58.14;96790.13;10446687;28;20052;-46
2022/07/14 13:12:27;;;;;;;8.68;3.22;;;;;;;20.26;58.19;96782.47;10436098;28;20057;-46
2022/07/14 13:17:58;;;;;;;3.97;2.40;;;;;;;20.23;57.16;96777.75;10435594;28;20081;-48
2022/07/14 13:23:27;;;;;;;4.90;2.50;;;;;;;20.25;57.87;96772.78;10410058;28;20084;-45
2022/07/14 13:28:55;;;;;;;5.82;3.08;;;;;;;20.24;57.40;96762.28;10419376;28;20061;-48
2022/07/14 13:34:17;;;;;;;5.78;2.65;;;;;;;20.24;58.07;96752.25;10432884;28;20060;-46
2022/07/14 13:39:37;;;;;;;4.90;2.58;;;;;;;20.23;57.27;96756.09;10414960;28;20057;-46
2022/07/14 13:44:57;;;;;;;4.57;2.50;;;;;;;20.25;58.04;96751.16;10426073;28;20065;-46
2022/07/14 13:55:55;;;;;;;3.97;2.22;;;;;;;20.24;58.29;96736.03;10419234;28;20049;-46
2022/07/14 14:01:14;;;;;;;3.60;2.17;;;;;;;20.26;57.61;96733.00;10418349;28;20520;-47
2022/07/14 14:06:33;;;;;;;3.13;1.98;;;;;;;20.25;58.53;96718.69;10420835;28;20056;-47
2022/07/14 14:11:53;;;;;;;3.13;2.20;;;;;;;20.25;57.76;96715.19;10418884;28;20060;-46
2022/07/14 14:17:13;;;;;;;3.28;1.90;;;;;;;20.25;58.51;96704.38;10418240;28;20463;-47
2022/07/14 14:22:32;;;;;;;3.67;2.22;;;;;;;20.26;58.43;96701.31;10405472;28;20050;-46
2022/07/14 14:27:52;;;;;;;3.65;2.20;;;;;;;20.24;58.24;96686.56;10430190;28;20057;-46
2022/07/14 14:33:11;;;;;;;4.20;1.98;;;;;;;20.25;58.54;96685.44;10441837;28;20045;-48
2022/07/14 14:38:30;;;;;;;3.30;2.20;;;;;;;20.24;58.04;96676.50;10440458;28;20393;-47
2022/07/14 14:43:50;;;;;;;3.50;2.00;;;;;;;20.26;58.24;96674.25;10419570;28;20455;-46
2022/07/14 14:49:09;;;;;;;4.20;2.10;;;;;;;20.25;58.41;96651.06;10424543;28;20489;-46
2022/07/14 14:54:28;;;;;;;3.05;1.90;;;;;;;20.26;58.46;96643.72;10440352;28;20056;-46
2022/07/14 14:59:48;;;;;;;2.45;1.83;;;;;;;20.26;58.03;96651.84;10443560;28;20519;-46
2022/07/14 15:05:08;;;;;;;4.13;2.00;;;;;;;20.27;58.09;96648.81;10446970;28;20405;-47
2022/07/14 15:10:28;;;;;;;2.55;1.70;;;;;;;20.29;58.38;96616.81;10455554;28;20087;-45
2022/07/14 15:15:47;;;;;;;3.15;1.90;;;;;;;20.31;58.47;96602.97;10441526;28;20408;-47
2022/07/14 15:21:07;;;;;;;4.32;2.40;;;;;;;20.34;58.85;96591.44;10431595;28;20045;-46
2022/07/14 15:26:27;;;;;;;3.30;2.13;;;;;;;20.36;59.22;96591.91;10407872;28;20061;-45
2022/07/14 15:31:50;;;;;;;5.25;2.03;;;;;;;20.36;59.40;96591.91;10441001;28;20058;-46
2022/07/14 15:37:10;;;;;;;4.72;2.10;;;;;;;20.39;59.84;96590.47;10416606;28;20049;-49
2022/07/14 15:42:30;;;;;;;3.90;2.20;;;;;;;20.45;60.41;96583.72;10417566;28;20045;-52
2022/07/14 15:47:49;;;;;;;7.47;2.20;;;;;;;20.49;60.71;96579.22;10409132;28;20066;-48
2022/07/14 15:53:09;;;;;;;3.40;2.00;;;;;;;20.49;61.04;96576.50;10427803;28;20060;-49
2022/07/14 15:58:29;;;;;;;5.93;2.00;;;;;;;20.48;61.44;96581.13;10412252;28;20045;-45
2022/07/14 16:03:48;;;;;;;5.18;2.08;;;;;;;20.50;61.24;96597.00;10414266;28;20045;-46
2022/07/14 16:09:08;;;;;;;14.48;2.15;;;;;;;20.49;61.40;96617.88;10427048;28;20280;-48
2022/07/14 16:14:27;;;;;;;6.40;2.33;;;;;;;20.55;61.33;96585.97;10413241;28;20501;-47
2022/07/14 16:19:47;;;;;;;8.75;2.10;;;;;;;20.61;61.77;96564.94;10449299;28;20059;-46
2022/07/14 16:25:07;;;;;;;7.47;2.00;;;;;;;20.62;61.81;96563.78;10401909;28;20050;-47
2022/07/14 16:30:27;;;;;;;6.82;2.22;;;;;;;20.62;61.95;96542.97;10413330;28;20062;-46
2022/07/14 16:35:48;;;;;;;5.70;1.90;;;;;;;20.64;62.01;96524.47;10413308;28;20072;-46
2022/07/14 16:41:08;;;;;;;7.40;2.10;;;;;;;20.64;62.11;96521.75;10409854;28;20072;-48
2022/07/14 16:46:28;;;;;;;7.43;2.35;;;;;;;20.67;62.03;96493.22;10415445;28;20046;-46
2022/07/14 16:51:48;;;;;;;4.97;2.00;;;;;;;20.68;62.01;96492.06;10446454;28;20052;-47
2022/07/14 16:57:08;;;;;;;4.00;1.95;;;;;;;20.68;61.96;96506.41;10417744;28;20054;-46
2022/07/14 17:02:27;;;;;;;8.45;2.10;;;;;;;20.70;62.23;96536.63;10408565;28;20505;-45
2022/07/14 17:07:47;;;;;;;7.97;2.20;;;;;;;20.67;62.16;96521.06;10418346;28;20057;-47
2022/07/14 17:13:06;;;;;;;4.85;2.08;;;;;;;20.64;62.07;96534.47;10451661;28;20052;-46
2022/07/14 17:18:25;;;;;;;3.33;1.98;;;;;;;20.63;62.14;96513.97;10425505;28;20068;-46
2022/07/14 17:23:44;;;;;;;4.78;2.05;;;;;;;20.63;62.01;96531.00;10416630;28;20063;-47
2022/07/14 17:29:05;;;;;;;2.78;2.20;;;;;;;20.63;62.00;96482.28;10424644;28;20053;-46
2022/07/14 17:34:25;;;;;;;3.75;2.45;;;;;;;20.63;61.76;96558.06;10412178;28;20097;-46
2022/07/14 17:39:44;;;;;;;4.50;2.70;;;;;;;20.64;61.35;96600.25;10434534;28;20064;-48
2022/07/14 17:45:03;;;;;;;4.88;2.92;;;;;;;20.63;61.17;96654.72;10412152;28;20057;-46
2022/07/14 17:50:23;;;;;;;4.95;3.10;;;;;;;20.62;61.53;96712.66;10433162;28;20061;-47
2022/07/14 17:55:42;;;;;;;5.45;2.97;;;;;;;20.62;61.51;96632.28;10467395;28;20571;-46
2022/07/14 18:01:02;;;;;;;3.58;2.63;;;;;;;20.61;61.40;96622.56;10443897;28;20056;-47
2022/07/14 18:06:21;;;;;;;6.50;3.00;;;;;;;20.61;61.96;96592.00;10430341;28;20060;-46
2022/07/14 18:11:41;;;;;;;3.72;3.25;;;;;;;20.59;63.04;96619.41;10418574;28;20117;-45
2022/07/14 18:17:01;;;;;;;5.47;3.22;;;;;;;20.59;63.46;96632.13;10439547;28;20057;-46
2022/07/14 18:22:23;;;;;;;3.78;3.00;;;;;;;20.58;63.70;96657.59;10417842;28;20065;-46
2022/07/14 18:27:43;;;;;;;5.40;2.95;;;;;;;20.55;64.04;96726.72;10431199;28;20075;-46
2022/07/14 18:33:03;;;;;;;3.72;2.67;;;;;;;20.52;64.21;96736.28;10447300;28;20053;-46
2022/07/14 18:38:23;;;;;;;5.43;2.85;;;;;;;20.47;65.09;96749.22;10424036;28;20068;-49
2022/07/14 18:43:43;;;;;;;6.30;3.28;;;;;;;20.40;65.33;96814.69;10414010;28;20064;-46
2022/07/14 18:49:03;;;;;;;4.32;2.78;;;;;;;20.40;65.33;96844.44;10417034;28;20057;-46
2022/07/14 18:54:22;;;;;;;3.63;2.78;;;;;;;20.42;65.36;96841.41;10429931;28;20493;-48
2022/07/14 18:59:42;;;;;;;4.70;3.05;;;;;;;20.41;65.42;96848.75;10416432;28;20292;-47
2022/07/14 19:05:03;;;;;;;3.65;2.97;;;;;;;20.41;65.43;96859.56;10415632;28;20497;-48
2022/07/14 19:10:23;;;;;;;3.85;3.38;;;;;;;20.43;65.63;96802.44;10406265;28;20053;-47
2022/07/14 19:15:42;;;;;;;3.30;3.00;;;;;;;20.43;65.80;96683.38;10416225;28;20049;-47
2022/07/14 19:21:01;;;;;;;4.85;3.50;;;;;;;20.42;65.84;96673.66;10427014;28;20060;-47
2022/07/14 19:26:21;;;;;;;3.63;3.00;;;;;;;20.41;65.92;96663.97;10420079;28;20112;-46
2022/07/14 19:31:40;;;;;;;4.22;3.10;;;;;;;20.41;65.88;96650.44;10427792;28;20057;-48
2022/07/14 19:37:00;;;;;;;5.70;3.30;;;;;;;20.39;65.85;96694.06;10441041;28;20057;-48
2022/07/14 19:42:19;;;;;;;3.35;2.85;;;;;;;20.38;65.71;96706.00;10434176;28;20057;-48
2022/07/14 19:47:39;;;;;;;3.50;2.85;;;;;;;20.38;65.72;96733.06;10442737;28;20052;-47
2022/07/14 19:52:58;;;;;;;3.47;3.03;;;;;;;20.36;65.81;96746.13;10417128;28;20405;-49
2022/07/14 19:58:18;;;;;;;4.35;2.75;;;;;;;20.35;65.75;96791.34;10414031;28;20069;-48
2022/07/14 20:03:38;;;;;;;3.20;2.85;;;;;;;20.35;65.54;96833.84;10413840;28;20145;-45
2022/07/14 20:08:57;;;;;;;3.60;2.92;;;;;;;20.34;65.55;96784.31;10413573;28;20064;-46
2022/07/14 20:14:17;;;;;;;3.42;2.92;;;;;;;20.34;65.57;96778.91;10411195;28;20524;-47
2022/07/14 20:19:36;;;;;;;3.20;2.60;;;;;;;20.33;65.56;96826.03;10402205;28;20061;-47
2022/07/14 20:24:55;;;;;;;3.00;2.70;;;;;;;20.32;65.57;96818.25;10401096;28;20057;-47
2022/07/14 20:35:54;;;;;;;3.33;2.70;;;;;;;20.30;65.53;96810.44;10413210;28;20080;-46
2022/07/14 20:41:14;;;;;;;3.30;3.00;;;;;;;20.30;65.73;96805.03;10412320;28;20532;-47
2022/07/14 20:52:13;;;;;;;3.25;2.83;;;;;;;20.26;65.38;96824.97;10400995;28;20057;-47
2022/07/14 20:57:32;;;;;;;2.83;2.58;;;;;;;20.30;65.05;96805.03;10412998;28;20054;-48
2022/07/14 21:02:51;;;;;;;2.97;2.40;;;;;;;20.32;64.46;96810.91;10412877;28;20053;-48
2022/07/14 21:08:10;;;;;;;3.85;2.50;;;;;;;20.34;64.03;96810.59;10413063;28;20416;-47
2022/07/14 21:13:30;;;;;;;2.92;2.63;;;;;;;20.35;63.93;96814.91;10412759;28;20058;-45
2022/07/14 21:18:49;;;;;;;2.65;2.28;;;;;;;20.35;63.67;96839.25;10412676;28;20062;-48
2022/07/14 21:24:08;;;;;;;2.42;2.13;;;;;;;20.36;63.55;96854.34;10412983;28;20053;-46
2022/07/14 21:29:28;;;;;;;4.97;2.30;;;;;;;20.35;63.36;96877.91;10417478;28;20066;-48
2022/07/14 21:34:47;;;;;;;3.53;2.20;;;;;;;20.37;63.44;96885.69;10431663;28;20046;-47
2022/07/14 21:40:07;;;;;;;2.22;2.03;;;;;;;20.36;63.44;96889.50;10413971;28;20053;-47
2022/07/14 21:45:27;;;;;;;3.42;2.53;;;;;;;20.37;63.21;96896.53;10420314;28;20053;-48
2022/07/14 21:50:47;;;;;;;2.40;2.20;;;;;;;20.38;63.13;96892.69;10419406;28;20177;-48
2022/07/14 21:56:07;;;;;;;2.40;2.10;;;;;;;20.38;63.11;96889.19;10432433;28;20049;-47
2022/07/14 22:01:26;;;;;;;2.58;2.10;;;;;;;20.38;63.09;96887.28;10407555;28;20060;-46
2022/07/14 22:06:45;;;;;;;4.30;2.15;;;;;;;20.38;62.88;96908.91;10418997;28;20077;-46
2022/07/14 22:12:05;;;;;;;3.58;2.20;;;;;;;20.38;63.02;96906.22;10419097;28;20064;-47
2022/07/14 22:17:26;;;;;;;2.47;2.20;;;;;;;20.37;63.05;96918.19;10418405;28;20066;-46
2022/07/14 22:22:46;;;;;;;2.22;2.05;;;;;;;20.37;63.01;96901.16;10405910;28;20049;-46
2022/07/14 22:28:06;;;;;;;2.33;2.10;;;;;;;20.38;62.97;96908.13;10430679;28;20135;-47
2022/07/14 22:33:25;;;;;;;1.92;1.83;;;;;;;20.37;62.92;96910.06;10416529;28;20057;-46
2022/07/14 22:38:45;;;;;;;2.40;2.20;;;;;;;20.39;62.92;96920.56;10443462;28;20037;-45
2022/07/14 22:44:04;;;;;;;2.25;1.88;;;;;;;20.38;62.90;96929.78;10416751;28;20053;-48
2022/07/14 22:49:23;;;;;;;2.28;2.08;;;;;;;20.39;62.87;96931.38;10429780;28;20115;-46
2022/07/14 22:54:43;;;;;;;2.08;1.88;;;;;;;20.38;62.84;96932.50;10430038;28;20049;-46
2022/07/14 23:00:06;;;;;;;1.92;1.83;;;;;;;20.38;62.92;96940.59;10405941;28;20057;-47
2022/07/14 23:05:26;;;;;;;2.08;1.88;;;;;;;20.37;62.92;96939.03;10429768;28;20111;-45
2022/07/14 23:10:45;;;;;;;2.10;1.90;;;;;;;20.37;62.80;96961.47;10439579;28;20056;-47
2022/07/14 23:16:04;;;;;;;1.90;1.67;;;;;;;20.36;62.77;96959.88;10416179;28;20057;-46
2022/07/14 23:21:24;;;;;;;2.20;2.00;;;;;;;20.38;62.74;96973.06;10410837;28;20081;-46
2022/07/14 23:26:43;;;;;;;2.15;1.92;;;;;;;20.37;62.68;96971.50;10410505;28;20057;-46
2022/07/14 23:32:02;;;;;;;2.10;1.90;;;;;;;20.37;62.74;96972.28;10427300;28;20045;-46
2022/07/14 23:37:22;;;;;;;2.35;2.00;;;;;;;20.35;62.65;96972.59;10415056;28;20061;-48
2022/07/14 23:42:42;;;;;;;2.10;1.90;;;;;;;20.37;62.74;96971.50;10415858;28;20049;-48
2022/07/14 23:48:02;;;;;;;1.80;1.70;;;;;;;20.37;62.57;96979.63;10421119;28;20057;-46
2022/07/14 23:53:22;;;;;;;1.77;1.67;;;;;;;20.37;62.67;96982.31;10418571;28;20057;-47
2022/07/14 23:58:42;;;;;;;1.88;1.73;;;;;;;20.36;62.43;96984.22;10427500;28;20405;-47
